sensor_id;sensor_type;location;lat;lon;timestamp;P1;durP1;ratioP1;P2;durP2;ratioP2
16969;SDS011;8601;48.718;8.992;2023-06-22T00:01:15;9.10;;;7.90;;
16969;SDS011;8601;48.718;8.992;2023-06-22T00:03:42;8.83;;;7.93;;
16969;SDS011;8601;48.718;8.992;2023-06-22T00:06:09;9.37;;;7.80;;
16969;SDS011;8601;48.718;8.992;2023-06-22T00:08:36;8.53;;;7.53;;
16969;SDS011;8601;48.718;8.992;2023-06-22T00:11:05;8.30;;;7.50;;
16969;SDS011;8601;48.718;8.992;2023-06-22T00:13:32;10.77;;;8.50;;
16969;SDS011;8601;48.718;8.992;2023-06-22T00:15:58;8.00;;;7.30;;
16969;SDS011;8601;48.718;8.992;2023-06-22T00:18:25;8.60;;;7.23;;
16969;SDS011;8601;48.718;8.992;2023-06-22T00:20:53;8.47;;;7.67;;
16969;SDS011;8601;48.718;8.992;2023-06-22T00:23:22;9.17;;;7.63;;
16969;SDS011;8601;48.718;8.992;2023-06-22T00:25:50;8.57;;;7.77;;
16969;SDS011;8601;48.718;8.992;2023-06-22T00:28:18;8.80;;;7.87;;
16969;SDS011;8601;48.718;8.992;2023-06-22T00:30:45;8.63;;;7.33;;
16969;SDS011;8601;48.718;8.992;2023-06-22T00:33:12;9.00;;;8.10;;
16969;SDS011;8601;48.718;8.992;2023-06-22T00:35:41;10.90;;;8.40;;
16969;SDS011;8601;48.718;8.992;2023-06-22T00:38:08;8.27;;;7.47;;
16969;SDS011;8601;48.718;8.992;2023-06-22T00:40:35;8.37;;;7.57;;
16969;SDS011;8601;48.718;8.992;2023-06-22T00:43:03;9.10;;;8.20;;
16969;SDS011;8601;48.718;8.992;2023-06-22T00:45:32;8.60;;;7.73;;
16969;SDS011;8601;48.718;8.992;2023-06-22T00:47:59;8.30;;;7.40;;
16969;SDS011;8601;48.718;8.992;2023-06-22T00:50:27;8.50;;;7.70;;
16969;SDS011;8601;48.718;8.992;2023-06-22T00:52:58;9.33;;;8.13;;
16969;SDS011;8601;48.718;8.992;2023-06-22T00:55:27;8.40;;;7.57;;
16969;SDS011;8601;48.718;8.992;2023-06-22T00:57:54;9.80;;;7.53;;
16969;SDS011;8601;48.718;8.992;2023-06-22T01:00:22;8.47;;;7.67;;
16969;SDS011;8601;48.718;8.992;2023-06-22T01:02:51;8.87;;;7.73;;
16969;SDS011;8601;48.718;8.992;2023-06-22T01:05:19;9.73;;;8.03;;
16969;SDS011;8601;48.718;8.992;2023-06-22T01:07:56;9.30;;;7.67;;
16969;SDS011;8601;48.718;8.992;2023-06-22T01:10:32;10.20;;;7.93;;
16969;SDS011;8601;48.718;8.992;2023-06-22T01:13:07;8.63;;;7.83;;
16969;SDS011;8601;48.718;8.992;2023-06-22T01:15:43;7.87;;;7.07;;
16969;SDS011;8601;48.718;8.992;2023-06-22T01:18:16;10.30;;;7.83;;
16969;SDS011;8601;48.718;8.992;2023-06-22T01:20:44;9.03;;;7.57;;
16969;SDS011;8601;48.718;8.992;2023-06-22T01:23:17;9.17;;;8.17;;
16969;SDS011;8601;48.718;8.992;2023-06-22T01:25:53;11.50;;;8.10;;
16969;SDS011;8601;48.718;8.992;2023-06-22T01:28:42;8.90;;;7.67;;
16969;SDS011;8601;48.718;8.992;2023-06-22T01:31:12;8.77;;;7.67;;
16969;SDS011;8601;48.718;8.992;2023-06-22T01:33:41;9.83;;;7.60;;
16969;SDS011;8601;48.718;8.992;2023-06-22T01:36:10;11.50;;;7.73;;
16969;SDS011;8601;48.718;8.992;2023-06-22T01:38:37;8.07;;;7.27;;
16969;SDS011;8601;48.718;8.992;2023-06-22T01:41:05;8.50;;;7.60;;
16969;SDS011;8601;48.718;8.992;2023-06-22T01:43:32;9.67;;;7.10;;
16969;SDS011;8601;48.718;8.992;2023-06-22T01:46:02;9.57;;;7.63;;
16969;SDS011;8601;48.718;8.992;2023-06-22T01:48:30;8.83;;;7.93;;
16969;SDS011;8601;48.718;8.992;2023-06-22T01:50:58;8.53;;;7.27;;
16969;SDS011;8601;48.718;8.992;2023-06-22T01:53:25;9.37;;;8.27;;
16969;SDS011;8601;48.718;8.992;2023-06-22T01:55:53;8.50;;;7.80;;
16969;SDS011;8601;48.718;8.992;2023-06-22T01:58:22;9.67;;;7.73;;
16969;SDS011;8601;48.718;8.992;2023-06-22T02:00:53;11.13;;;8.40;;
16969;SDS011;8601;48.718;8.992;2023-06-22T02:03:28;9.27;;;8.37;;
16969;SDS011;8601;48.718;8.992;2023-06-22T02:06:04;9.53;;;8.13;;
16969;SDS011;8601;48.718;8.992;2023-06-22T02:08:35;10.40;;;8.73;;
16969;SDS011;8601;48.718;8.992;2023-06-22T02:11:06;9.07;;;8.10;;
16969;SDS011;8601;48.718;8.992;2023-06-22T02:13:36;11.00;;;8.13;;
16969;SDS011;8601;48.718;8.992;2023-06-22T02:16:07;10.23;;;8.00;;
16969;SDS011;8601;48.718;8.992;2023-06-22T02:18:36;8.57;;;7.70;;
16969;SDS011;8601;48.718;8.992;2023-06-22T02:21:05;8.30;;;7.10;;
16969;SDS011;8601;48.718;8.992;2023-06-22T02:23:32;7.93;;;7.23;;
16969;SDS011;8601;48.718;8.992;2023-06-22T02:26:00;7.87;;;6.80;;
16969;SDS011;8601;48.718;8.992;2023-06-22T02:28:27;7.80;;;7.00;;
16969;SDS011;8601;48.718;8.992;2023-06-22T02:30:54;8.00;;;7.20;;
16969;SDS011;8601;48.718;8.992;2023-06-22T02:33:21;9.20;;;7.67;;
16969;SDS011;8601;48.718;8.992;2023-06-22T02:35:50;8.80;;;6.47;;
16969;SDS011;8601;48.718;8.992;2023-06-22T02:38:17;9.00;;;7.87;;
16969;SDS011;8601;48.718;8.992;2023-06-22T02:40:44;7.83;;;6.97;;
16969;SDS011;8601;48.718;8.992;2023-06-22T02:43:11;7.60;;;6.80;;
16969;SDS011;8601;48.718;8.992;2023-06-22T02:45:38;9.60;;;7.47;;
16969;SDS011;8601;48.718;8.992;2023-06-22T02:48:05;10.43;;;7.70;;
16969;SDS011;8601;48.718;8.992;2023-06-22T02:50:32;9.17;;;7.67;;
16969;SDS011;8601;48.718;8.992;2023-06-22T02:53:00;8.37;;;7.53;;
16969;SDS011;8601;48.718;8.992;2023-06-22T02:55:28;8.73;;;7.83;;
16969;SDS011;8601;48.718;8.992;2023-06-22T02:57:55;9.40;;;7.70;;
16969;SDS011;8601;48.718;8.992;2023-06-22T03:00:22;8.30;;;7.20;;
16969;SDS011;8601;48.718;8.992;2023-06-22T03:02:55;9.00;;;7.77;;
16969;SDS011;8601;48.718;8.992;2023-06-22T03:05:22;9.03;;;8.13;;
16969;SDS011;8601;48.718;8.992;2023-06-22T03:07:51;9.93;;;8.23;;
16969;SDS011;8601;48.718;8.992;2023-06-22T03:10:19;9.27;;;7.43;;
16969;SDS011;8601;48.718;8.992;2023-06-22T03:12:46;7.97;;;6.97;;
16969;SDS011;8601;48.718;8.992;2023-06-22T03:15:14;8.63;;;7.40;;
16969;SDS011;8601;48.718;8.992;2023-06-22T03:17:42;8.77;;;7.87;;
16969;SDS011;8601;48.718;8.992;2023-06-22T03:20:09;8.60;;;7.70;;
16969;SDS011;8601;48.718;8.992;2023-06-22T03:22:37;9.73;;;7.93;;
16969;SDS011;8601;48.718;8.992;2023-06-22T03:25:06;8.63;;;7.03;;
16969;SDS011;8601;48.718;8.992;2023-06-22T03:27:39;9.27;;;8.27;;
16969;SDS011;8601;48.718;8.992;2023-06-22T03:30:08;9.97;;;8.43;;
16969;SDS011;8601;48.718;8.992;2023-06-22T03:32:37;11.33;;;7.77;;
16969;SDS011;8601;48.718;8.992;2023-06-22T03:35:04;9.50;;;7.93;;
16969;SDS011;8601;48.718;8.992;2023-06-22T03:37:32;8.83;;;7.90;;
16969;SDS011;8601;48.718;8.992;2023-06-22T03:39:59;11.93;;;7.67;;
16969;SDS011;8601;48.718;8.992;2023-06-22T03:42:26;10.20;;;8.17;;
16969;SDS011;8601;48.718;8.992;2023-06-22T03:44:54;8.63;;;7.83;;
16969;SDS011;8601;48.718;8.992;2023-06-22T03:47:21;9.37;;;8.40;;
16969;SDS011;8601;48.718;8.992;2023-06-22T03:49:48;10.00;;;8.60;;
16969;SDS011;8601;48.718;8.992;2023-06-22T03:52:20;9.33;;;8.27;;
16969;SDS011;8601;48.718;8.992;2023-06-22T03:54:47;8.83;;;7.50;;
16969;SDS011;8601;48.718;8.992;2023-06-22T03:57:14;10.70;;;8.00;;
16969;SDS011;8601;48.718;8.992;2023-06-22T03:59:41;9.53;;;8.07;;
16969;SDS011;8601;48.718;8.992;2023-06-22T04:02:09;8.63;;;7.67;;
16969;SDS011;8601;48.718;8.992;2023-06-22T04:04:36;9.57;;;8.53;;
16969;SDS011;8601;48.718;8.992;2023-06-22T04:07:04;9.80;;;8.73;;
16969;SDS011;8601;48.718;8.992;2023-06-22T04:09:31;9.40;;;8.53;;
16969;SDS011;8601;48.718;8.992;2023-06-22T04:11:58;9.50;;;8.33;;
16969;SDS011;8601;48.718;8.992;2023-06-22T04:14:25;9.77;;;8.40;;
16969;SDS011;8601;48.718;8.992;2023-06-22T04:16:52;11.50;;;8.17;;
16969;SDS011;8601;48.718;8.992;2023-06-22T04:19:20;10.33;;;8.70;;
16969;SDS011;8601;48.718;8.992;2023-06-22T04:21:48;8.97;;;8.07;;
16969;SDS011;8601;48.718;8.992;2023-06-22T04:24:15;10.67;;;8.53;;
16969;SDS011;8601;48.718;8.992;2023-06-22T04:26:42;9.53;;;8.53;;
16969;SDS011;8601;48.718;8.992;2023-06-22T04:29:10;9.70;;;8.30;;
16969;SDS011;8601;48.718;8.992;2023-06-22T04:31:37;10.17;;;9.17;;
16969;SDS011;8601;48.718;8.992;2023-06-22T04:34:05;9.97;;;8.77;;
16969;SDS011;8601;48.718;8.992;2023-06-22T04:36:35;9.40;;;8.40;;
16969;SDS011;8601;48.718;8.992;2023-06-22T04:39:06;10.30;;;8.80;;
16969;SDS011;8601;48.718;8.992;2023-06-22T04:41:34;10.40;;;8.90;;
16969;SDS011;8601;48.718;8.992;2023-06-22T04:44:08;11.53;;;9.87;;
16969;SDS011;8601;48.718;8.992;2023-06-22T04:46:35;10.03;;;8.90;;
16969;SDS011;8601;48.718;8.992;2023-06-22T04:49:04;10.93;;;8.93;;
16969;SDS011;8601;48.718;8.992;2023-06-22T04:51:36;9.77;;;8.83;;
16969;SDS011;8601;48.718;8.992;2023-06-22T04:54:04;10.40;;;8.83;;
16969;SDS011;8601;48.718;8.992;2023-06-22T04:56:31;10.63;;;8.83;;
16969;SDS011;8601;48.718;8.992;2023-06-22T04:58:58;9.67;;;8.67;;
16969;SDS011;8601;48.718;8.992;2023-06-22T05:01:25;11.27;;;9.37;;
16969;SDS011;8601;48.718;8.992;2023-06-22T05:03:52;11.53;;;9.87;;
16969;SDS011;8601;48.718;8.992;2023-06-22T05:06:20;11.37;;;10.17;;
16969;SDS011;8601;48.718;8.992;2023-06-22T05:08:50;9.97;;;8.07;;
16969;SDS011;8601;48.718;8.992;2023-06-22T05:11:22;10.27;;;8.57;;
16969;SDS011;8601;48.718;8.992;2023-06-22T05:13:49;9.23;;;8.33;;
16969;SDS011;8601;48.718;8.992;2023-06-22T05:16:16;11.17;;;9.10;;
16969;SDS011;8601;48.718;8.992;2023-06-22T05:18:49;9.07;;;8.13;;
16969;SDS011;8601;48.718;8.992;2023-06-22T05:21:21;9.03;;;8.13;;
16969;SDS011;8601;48.718;8.992;2023-06-22T05:23:50;9.77;;;8.73;;
16969;SDS011;8601;48.718;8.992;2023-06-22T05:26:18;9.23;;;8.20;;
16969;SDS011;8601;48.718;8.992;2023-06-22T05:28:45;8.57;;;7.77;;
16969;SDS011;8601;48.718;8.992;2023-06-22T05:31:12;8.50;;;7.37;;
16969;SDS011;8601;48.718;8.992;2023-06-22T05:33:40;8.30;;;7.50;;
16969;SDS011;8601;48.718;8.992;2023-06-22T05:36:07;8.77;;;7.57;;
16969;SDS011;8601;48.718;8.992;2023-06-22T05:38:35;8.47;;;7.67;;
16969;SDS011;8601;48.718;8.992;2023-06-22T05:41:03;8.10;;;7.27;;
16969;SDS011;8601;48.718;8.992;2023-06-22T05:43:31;8.23;;;6.70;;
16969;SDS011;8601;48.718;8.992;2023-06-22T05:45:58;8.93;;;7.40;;
16969;SDS011;8601;48.718;8.992;2023-06-22T05:48:26;8.23;;;7.03;;
16969;SDS011;8601;48.718;8.992;2023-06-22T05:50:53;8.20;;;6.90;;
16969;SDS011;8601;48.718;8.992;2023-06-22T05:53:20;10.20;;;7.07;;
16969;SDS011;8601;48.718;8.992;2023-06-22T05:55:48;8.23;;;6.73;;
16969;SDS011;8601;48.718;8.992;2023-06-22T05:58:16;9.00;;;7.00;;
16969;SDS011;8601;48.718;8.992;2023-06-22T06:00:43;9.47;;;7.03;;
16969;SDS011;8601;48.718;8.992;2023-06-22T06:03:11;8.53;;;7.30;;
16969;SDS011;8601;48.718;8.992;2023-06-22T06:05:42;11.10;;;7.03;;
16969;SDS011;8601;48.718;8.992;2023-06-22T06:08:09;10.03;;;6.80;;
16969;SDS011;8601;48.718;8.992;2023-06-22T06:10:37;8.33;;;6.73;;
16969;SDS011;8601;48.718;8.992;2023-06-22T06:13:04;8.50;;;6.63;;
16969;SDS011;8601;48.718;8.992;2023-06-22T06:15:33;8.27;;;7.17;;
16969;SDS011;8601;48.718;8.992;2023-06-22T06:18:01;8.40;;;6.60;;
16969;SDS011;8601;48.718;8.992;2023-06-22T06:20:30;7.60;;;6.30;;
16969;SDS011;8601;48.718;8.992;2023-06-22T06:22:57;8.43;;;6.57;;
16969;SDS011;8601;48.718;8.992;2023-06-22T06:25:24;6.53;;;5.93;;
16969;SDS011;8601;48.718;8.992;2023-06-22T06:27:51;7.80;;;5.80;;
16969;SDS011;8601;48.718;8.992;2023-06-22T06:30:19;7.17;;;5.93;;
16969;SDS011;8601;48.718;8.992;2023-06-22T06:32:49;9.57;;;5.70;;
16969;SDS011;8601;48.718;8.992;2023-06-22T06:35:16;7.43;;;5.80;;
16969;SDS011;8601;48.718;8.992;2023-06-22T06:37:44;6.87;;;5.07;;
16969;SDS011;8601;48.718;8.992;2023-06-22T06:40:12;7.17;;;5.57;;
16969;SDS011;8601;48.718;8.992;2023-06-22T06:42:40;9.23;;;5.20;;
16969;SDS011;8601;48.718;8.992;2023-06-22T06:45:10;9.50;;;5.43;;
16969;SDS011;8601;48.718;8.992;2023-06-22T06:47:38;7.13;;;5.50;;
16969;SDS011;8601;48.718;8.992;2023-06-22T06:50:07;7.50;;;4.90;;
16969;SDS011;8601;48.718;8.992;2023-06-22T06:52:34;8.27;;;5.77;;
16969;SDS011;8601;48.718;8.992;2023-06-22T06:55:02;8.27;;;5.40;;
16969;SDS011;8601;48.718;8.992;2023-06-22T06:57:33;7.57;;;4.93;;
16969;SDS011;8601;48.718;8.992;2023-06-22T07:00:00;8.57;;;5.07;;
16969;SDS011;8601;48.718;8.992;2023-06-22T07:02:30;6.07;;;5.07;;
16969;SDS011;8601;48.718;8.992;2023-06-22T07:04:57;8.20;;;5.57;;
16969;SDS011;8601;48.718;8.992;2023-06-22T07:07:25;9.33;;;4.87;;
16969;SDS011;8601;48.718;8.992;2023-06-22T07:09:53;9.40;;;5.23;;
16969;SDS011;8601;48.718;8.992;2023-06-22T07:12:19;9.57;;;5.00;;
16969;SDS011;8601;48.718;8.992;2023-06-22T07:14:46;7.20;;;5.10;;
16969;SDS011;8601;48.718;8.992;2023-06-22T07:17:13;8.00;;;4.90;;
16969;SDS011;8601;48.718;8.992;2023-06-22T07:19:40;6.57;;;4.83;;
16969;SDS011;8601;48.718;8.992;2023-06-22T07:22:07;10.30;;;4.23;;
16969;SDS011;8601;48.718;8.992;2023-06-22T07:24:36;6.83;;;4.60;;
16969;SDS011;8601;48.718;8.992;2023-06-22T07:27:03;5.87;;;4.50;;
16969;SDS011;8601;48.718;8.992;2023-06-22T07:29:31;7.83;;;4.97;;
16969;SDS011;8601;48.718;8.992;2023-06-22T07:31:58;6.00;;;4.63;;
16969;SDS011;8601;48.718;8.992;2023-06-22T07:34:26;6.57;;;4.50;;
16969;SDS011;8601;48.718;8.992;2023-06-22T07:36:52;6.43;;;4.80;;
16969;SDS011;8601;48.718;8.992;2023-06-22T07:39:19;8.37;;;5.37;;
16969;SDS011;8601;48.718;8.992;2023-06-22T07:41:52;8.27;;;4.77;;
16969;SDS011;8601;48.718;8.992;2023-06-22T07:44:19;5.80;;;4.73;;
16969;SDS011;8601;48.718;8.992;2023-06-22T07:46:45;5.43;;;4.20;;
16969;SDS011;8601;48.718;8.992;2023-06-22T07:49:13;7.80;;;5.10;;
16969;SDS011;8601;48.718;8.992;2023-06-22T07:51:40;11.00;;;5.47;;
16969;SDS011;8601;48.718;8.992;2023-06-22T07:54:06;10.60;;;5.17;;
16969;SDS011;8601;48.718;8.992;2023-06-22T07:56:35;6.73;;;5.07;;
16969;SDS011;8601;48.718;8.992;2023-06-22T07:59:04;8.30;;;5.10;;
16969;SDS011;8601;48.718;8.992;2023-06-22T08:01:30;7.30;;;5.07;;
16969;SDS011;8601;48.718;8.992;2023-06-22T08:03:57;7.53;;;4.80;;
16969;SDS011;8601;48.718;8.992;2023-06-22T08:06:24;9.03;;;4.97;;
16969;SDS011;8601;48.718;8.992;2023-06-22T08:08:51;7.10;;;5.13;;
16969;SDS011;8601;48.718;8.992;2023-06-22T08:11:19;9.27;;;4.93;;
16969;SDS011;8601;48.718;8.992;2023-06-22T08:13:47;6.37;;;4.80;;
16969;SDS011;8601;48.718;8.992;2023-06-22T08:16:15;7.00;;;4.80;;
16969;SDS011;8601;48.718;8.992;2023-06-22T08:18:42;7.17;;;5.13;;
16969;SDS011;8601;48.718;8.992;2023-06-22T08:21:10;7.73;;;4.70;;
16969;SDS011;8601;48.718;8.992;2023-06-22T08:23:37;9.80;;;5.07;;
16969;SDS011;8601;48.718;8.992;2023-06-22T08:26:04;8.13;;;5.30;;
16969;SDS011;8601;48.718;8.992;2023-06-22T08:28:30;9.80;;;5.40;;
16969;SDS011;8601;48.718;8.992;2023-06-22T08:30:59;8.90;;;4.67;;
16969;SDS011;8601;48.718;8.992;2023-06-22T08:33:28;8.33;;;5.80;;
16969;SDS011;8601;48.718;8.992;2023-06-22T08:35:55;9.10;;;5.07;;
16969;SDS011;8601;48.718;8.992;2023-06-22T08:38:22;9.17;;;5.13;;
16969;SDS011;8601;48.718;8.992;2023-06-22T08:40:50;7.73;;;4.90;;
16969;SDS011;8601;48.718;8.992;2023-06-22T08:43:16;8.10;;;4.93;;
16969;SDS011;8601;48.718;8.992;2023-06-22T08:45:44;8.90;;;5.37;;
16969;SDS011;8601;48.718;8.992;2023-06-22T08:48:10;10.32;;;5.93;;
16969;SDS011;8601;48.718;8.992;2023-06-22T08:50:39;7.97;;;5.43;;
16969;SDS011;8601;48.718;8.992;2023-06-22T08:53:06;10.93;;;5.60;;
16969;SDS011;8601;48.718;8.992;2023-06-22T08:55:33;8.98;;;5.50;;
16969;SDS011;8601;48.718;8.992;2023-06-22T08:58:00;8.38;;;4.90;;
16969;SDS011;8601;48.718;8.992;2023-06-22T09:00:27;8.82;;;5.53;;
16969;SDS011;8601;48.718;8.992;2023-06-22T09:02:57;8.70;;;5.25;;
16969;SDS011;8601;48.718;8.992;2023-06-22T09:05:24;7.50;;;5.27;;
16969;SDS011;8601;48.718;8.992;2023-06-22T09:07:53;10.63;;;5.40;;
16969;SDS011;8601;48.718;8.992;2023-06-22T09:10:20;8.70;;;5.30;;
16969;SDS011;8601;48.718;8.992;2023-06-22T09:12:47;11.90;;;5.80;;
16969;SDS011;8601;48.718;8.992;2023-06-22T09:15:15;10.23;;;5.45;;
16969;SDS011;8601;48.718;8.992;2023-06-22T09:17:42;8.40;;;5.28;;
16969;SDS011;8601;48.718;8.992;2023-06-22T09:20:11;10.05;;;5.40;;
16969;SDS011;8601;48.718;8.992;2023-06-22T09:22:38;9.38;;;5.70;;
16969;SDS011;8601;48.718;8.992;2023-06-22T09:25:08;9.23;;;6.40;;
16969;SDS011;8601;48.718;8.992;2023-06-22T09:27:35;15.63;;;6.25;;
16969;SDS011;8601;48.718;8.992;2023-06-22T09:30:03;11.10;;;5.68;;
16969;SDS011;8601;48.718;8.992;2023-06-22T09:32:30;10.15;;;5.72;;
16969;SDS011;8601;48.718;8.992;2023-06-22T09:34:57;9.13;;;5.53;;
16969;SDS011;8601;48.718;8.992;2023-06-22T09:37:24;8.45;;;5.78;;
16969;SDS011;8601;48.718;8.992;2023-06-22T09:39:51;7.93;;;5.32;;
16969;SDS011;8601;48.718;8.992;2023-06-22T09:42:20;11.02;;;6.10;;
16969;SDS011;8601;48.718;8.992;2023-06-22T09:44:47;10.20;;;5.57;;
16969;SDS011;8601;48.718;8.992;2023-06-22T09:47:13;10.15;;;5.55;;
16969;SDS011;8601;48.718;8.992;2023-06-22T09:49:41;10.02;;;5.80;;
16969;SDS011;8601;48.718;8.992;2023-06-22T09:52:08;9.38;;;5.65;;
16969;SDS011;8601;48.718;8.992;2023-06-22T09:54:36;8.60;;;5.10;;
16969;SDS011;8601;48.718;8.992;2023-06-22T09:57:03;7.22;;;4.90;;
16969;SDS011;8601;48.718;8.992;2023-06-22T09:59:32;10.48;;;5.05;;
16969;SDS011;8601;48.718;8.992;2023-06-22T10:01:59;10.07;;;5.40;;
16969;SDS011;8601;48.718;8.992;2023-06-22T10:04:26;10.65;;;5.45;;
16969;SDS011;8601;48.718;8.992;2023-06-22T10:06:53;10.88;;;5.47;;
16969;SDS011;8601;48.718;8.992;2023-06-22T10:09:20;7.05;;;5.25;;
16969;SDS011;8601;48.718;8.992;2023-06-22T10:11:47;8.68;;;5.30;;
16969;SDS011;8601;48.718;8.992;2023-06-22T10:14:14;10.30;;;5.57;;
16969;SDS011;8601;48.718;8.992;2023-06-22T10:16:43;9.48;;;5.72;;
16969;SDS011;8601;48.718;8.992;2023-06-22T10:19:09;8.75;;;5.18;;
16969;SDS011;8601;48.718;8.992;2023-06-22T10:21:36;9.10;;;4.95;;
16969;SDS011;8601;48.718;8.992;2023-06-22T10:24:03;7.88;;;5.70;;
16969;SDS011;8601;48.718;8.992;2023-06-22T10:26:32;9.60;;;4.95;;
16969;SDS011;8601;48.718;8.992;2023-06-22T10:28:59;10.95;;;5.32;;
16969;SDS011;8601;48.718;8.992;2023-06-22T10:31:26;8.30;;;5.18;;
16969;SDS011;8601;48.718;8.992;2023-06-22T10:33:55;9.15;;;5.45;;
16969;SDS011;8601;48.718;8.992;2023-06-22T10:36:22;9.15;;;5.60;;
16969;SDS011;8601;48.718;8.992;2023-06-22T10:38:49;10.73;;;5.25;;
16969;SDS011;8601;48.718;8.992;2023-06-22T10:41:17;10.90;;;5.43;;
16969;SDS011;8601;48.718;8.992;2023-06-22T10:43:44;10.57;;;5.90;;
16969;SDS011;8601;48.718;8.992;2023-06-22T10:46:11;9.75;;;5.10;;
16969;SDS011;8601;48.718;8.992;2023-06-22T10:48:38;12.95;;;5.47;;
16969;SDS011;8601;48.718;8.992;2023-06-22T10:51:07;8.20;;;5.38;;
16969;SDS011;8601;48.718;8.992;2023-06-22T10:53:34;14.05;;;5.97;;
16969;SDS011;8601;48.718;8.992;2023-06-22T10:56:01;10.98;;;5.60;;
16969;SDS011;8601;48.718;8.992;2023-06-22T10:58:27;10.88;;;5.85;;
16969;SDS011;8601;48.718;8.992;2023-06-22T11:00:54;8.63;;;5.70;;
16969;SDS011;8601;48.718;8.992;2023-06-22T11:03:21;10.45;;;5.10;;
16969;SDS011;8601;48.718;8.992;2023-06-22T11:05:48;11.48;;;5.05;;
16969;SDS011;8601;48.718;8.992;2023-06-22T11:08:16;11.43;;;5.45;;
16969;SDS011;8601;48.718;8.992;2023-06-22T11:10:43;10.98;;;5.82;;
16969;SDS011;8601;48.718;8.992;2023-06-22T11:13:10;10.32;;;5.78;;
16969;SDS011;8601;48.718;8.992;2023-06-22T11:15:37;9.00;;;5.18;;
16969;SDS011;8601;48.718;8.992;2023-06-22T11:18:05;10.02;;;5.18;;
16969;SDS011;8601;48.718;8.992;2023-06-22T11:20:32;6.88;;;5.18;;
16969;SDS011;8601;48.718;8.992;2023-06-22T11:23:03;10.50;;;5.82;;
16969;SDS011;8601;48.718;8.992;2023-06-22T11:25:32;9.95;;;5.63;;
16969;SDS011;8601;48.718;8.992;2023-06-22T11:28:00;8.38;;;5.05;;
16969;SDS011;8601;48.718;8.992;2023-06-22T11:30:27;9.65;;;5.82;;
16969;SDS011;8601;48.718;8.992;2023-06-22T11:32:54;8.55;;;5.30;;
16969;SDS011;8601;48.718;8.992;2023-06-22T11:35:22;9.88;;;5.10;;
16969;SDS011;8601;48.718;8.992;2023-06-22T11:37:49;9.48;;;5.40;;
16969;SDS011;8601;48.718;8.992;2023-06-22T11:40:16;11.40;;;5.65;;
16969;SDS011;8601;48.718;8.992;2023-06-22T11:42:44;10.75;;;5.70;;
16969;SDS011;8601;48.718;8.992;2023-06-22T11:45:11;7.07;;;5.20;;
16969;SDS011;8601;48.718;8.992;2023-06-22T11:47:38;11.15;;;5.80;;
16969;SDS011;8601;48.718;8.992;2023-06-22T11:50:05;9.98;;;5.45;;
16969;SDS011;8601;48.718;8.992;2023-06-22T11:52:33;14.32;;;5.97;;
16969;SDS011;8601;48.718;8.992;2023-06-22T11:55:01;10.00;;;6.30;;
16969;SDS011;8601;48.718;8.992;2023-06-22T11:57:29;7.55;;;5.13;;
16969;SDS011;8601;48.718;8.992;2023-06-22T11:59:58;9.80;;;5.88;;
16969;SDS011;8601;48.718;8.992;2023-06-22T12:02:25;9.15;;;5.97;;
16969;SDS011;8601;48.718;8.992;2023-06-22T12:04:52;7.93;;;5.18;;
16969;SDS011;8601;48.718;8.992;2023-06-22T12:07:21;9.98;;;5.32;;
16969;SDS011;8601;48.718;8.992;2023-06-22T12:09:48;9.23;;;5.50;;
16969;SDS011;8601;48.718;8.992;2023-06-22T12:12:15;9.35;;;4.95;;
16969;SDS011;8601;48.718;8.992;2023-06-22T12:14:42;10.90;;;6.03;;
16969;SDS011;8601;48.718;8.992;2023-06-22T12:17:10;12.30;;;5.53;;
16969;SDS011;8601;48.718;8.992;2023-06-22T12:19:37;7.93;;;5.00;;
16969;SDS011;8601;48.718;8.992;2023-06-22T12:22:05;10.98;;;5.90;;
16969;SDS011;8601;48.718;8.992;2023-06-22T12:24:32;13.65;;;5.95;;
16969;SDS011;8601;48.718;8.992;2023-06-22T12:26:59;9.93;;;5.63;;
16969;SDS011;8601;48.718;8.992;2023-06-22T12:29:28;9.70;;;6.22;;
16969;SDS011;8601;48.718;8.992;2023-06-22T12:31:55;11.18;;;5.60;;
16969;SDS011;8601;48.718;8.992;2023-06-22T12:34:24;11.88;;;6.47;;
16969;SDS011;8601;48.718;8.992;2023-06-22T12:36:50;9.63;;;5.80;;
16969;SDS011;8601;48.718;8.992;2023-06-22T12:39:19;11.45;;;5.47;;
16969;SDS011;8601;48.718;8.992;2023-06-22T12:41:46;11.00;;;5.95;;
16969;SDS011;8601;48.718;8.992;2023-06-22T12:44:13;9.60;;;5.82;;
16969;SDS011;8601;48.718;8.992;2023-06-22T12:46:40;10.70;;;5.88;;
16969;SDS011;8601;48.718;8.992;2023-06-22T12:49:07;8.63;;;5.60;;
16969;SDS011;8601;48.718;8.992;2023-06-22T12:51:38;10.38;;;6.15;;
16969;SDS011;8601;48.718;8.992;2023-06-22T12:54:07;10.48;;;6.28;;
16969;SDS011;8601;48.718;8.992;2023-06-22T12:56:34;10.40;;;6.20;;
16969;SDS011;8601;48.718;8.992;2023-06-22T12:59:01;11.23;;;5.97;;
16969;SDS011;8601;48.718;8.992;2023-06-22T13:01:28;15.75;;;6.43;;
16969;SDS011;8601;48.718;8.992;2023-06-22T13:03:55;10.10;;;5.93;;
16969;SDS011;8601;48.718;8.992;2023-06-22T13:06:22;9.57;;;5.90;;
16969;SDS011;8601;48.718;8.992;2023-06-22T13:08:50;11.63;;;7.00;;
16969;SDS011;8601;48.718;8.992;2023-06-22T13:11:17;12.45;;;6.18;;
16969;SDS011;8601;48.718;8.992;2023-06-22T13:13:44;10.88;;;6.20;;
16969;SDS011;8601;48.718;8.992;2023-06-22T13:16:12;10.48;;;5.95;;
16969;SDS011;8601;48.718;8.992;2023-06-22T13:18:38;10.95;;;5.00;;
16969;SDS011;8601;48.718;8.992;2023-06-22T13:21:05;11.38;;;5.25;;
16969;SDS011;8601;48.718;8.992;2023-06-22T13:23:32;12.50;;;5.65;;
16969;SDS011;8601;48.718;8.992;2023-06-22T13:26:01;9.52;;;5.70;;
16969;SDS011;8601;48.718;8.992;2023-06-22T13:28:28;10.70;;;5.95;;
16969;SDS011;8601;48.718;8.992;2023-06-22T13:30:55;9.65;;;6.10;;
16969;SDS011;8601;48.718;8.992;2023-06-22T13:33:22;10.95;;;6.70;;
16969;SDS011;8601;48.718;8.992;2023-06-22T13:35:49;14.00;;;5.63;;
16969;SDS011;8601;48.718;8.992;2023-06-22T13:38:16;10.52;;;5.75;;
16969;SDS011;8601;48.718;8.992;2023-06-22T13:40:43;9.10;;;5.60;;
16969;SDS011;8601;48.718;8.992;2023-06-22T13:43:12;11.27;;;5.22;;
16969;SDS011;8601;48.718;8.992;2023-06-22T13:45:38;9.68;;;5.50;;
16969;SDS011;8601;48.718;8.992;2023-06-22T13:48:06;11.70;;;6.03;;
16969;SDS011;8601;48.718;8.992;2023-06-22T13:50:33;9.80;;;5.55;;
16969;SDS011;8601;48.718;8.992;2023-06-22T13:53:00;10.68;;;5.57;;
16969;SDS011;8601;48.718;8.992;2023-06-22T13:55:27;9.13;;;5.18;;
16969;SDS011;8601;48.718;8.992;2023-06-22T13:57:54;13.02;;;5.63;;
16969;SDS011;8601;48.718;8.992;2023-06-22T14:00:22;9.00;;;5.85;;
16969;SDS011;8601;48.718;8.992;2023-06-22T14:02:49;15.43;;;5.18;;
16969;SDS011;8601;48.718;8.992;2023-06-22T14:05:16;10.82;;;5.50;;
16969;SDS011;8601;48.718;8.992;2023-06-22T14:07:43;13.70;;;5.15;;
16969;SDS011;8601;48.718;8.992;2023-06-22T14:10:10;11.82;;;5.50;;
16969;SDS011;8601;48.718;8.992;2023-06-22T14:12:37;16.17;;;5.68;;
16969;SDS011;8601;48.718;8.992;2023-06-22T14:15:04;11.32;;;5.88;;
16969;SDS011;8601;48.718;8.992;2023-06-22T14:17:33;10.18;;;5.80;;
16969;SDS011;8601;48.718;8.992;2023-06-22T14:20:00;11.88;;;5.10;;
16969;SDS011;8601;48.718;8.992;2023-06-22T14:22:27;10.15;;;4.43;;
16969;SDS011;8601;48.718;8.992;2023-06-22T14:24:54;10.23;;;4.60;;
16969;SDS011;8601;48.718;8.992;2023-06-22T14:27:22;8.45;;;3.45;;
16969;SDS011;8601;48.718;8.992;2023-06-22T14:29:49;10.90;;;4.15;;
16969;SDS011;8601;48.718;8.992;2023-06-22T14:32:16;9.40;;;3.38;;
16969;SDS011;8601;48.718;8.992;2023-06-22T14:34:45;8.40;;;3.13;;
16969;SDS011;8601;48.718;8.992;2023-06-22T14:37:12;12.30;;;3.47;;
16969;SDS011;8601;48.718;8.992;2023-06-22T14:39:39;11.18;;;3.65;;
16969;SDS011;8601;48.718;8.992;2023-06-22T14:42:06;9.82;;;3.33;;
16969;SDS011;8601;48.718;8.992;2023-06-22T14:44:33;9.32;;;3.10;;
16969;SDS011;8601;48.718;8.992;2023-06-22T14:47:00;9.68;;;3.30;;
16969;SDS011;8601;48.718;8.992;2023-06-22T14:49:27;10.98;;;3.60;;
16969;SDS011;8601;48.718;8.992;2023-06-22T14:51:55;10.40;;;3.38;;
16969;SDS011;8601;48.718;8.992;2023-06-22T14:54:22;9.65;;;3.63;;
16969;SDS011;8601;48.718;8.992;2023-06-22T14:56:50;8.40;;;3.10;;
16969;SDS011;8601;48.718;8.992;2023-06-22T14:59:17;11.20;;;3.47;;
16969;SDS011;8601;48.718;8.992;2023-06-22T15:01:43;9.07;;;3.28;;